createdAt,value
2022-11-26T00:02:23.910Z,43.58
2022-11-26T00:04:53.685Z,45.08
2022-11-26T00:07:26.017Z,38.23
2022-11-26T00:09:55.689Z,37.70
2022-11-26T00:12:31.157Z,38.08
2022-11-26T00:17:27.597Z,32.35
2022-11-26T00:19:55.291Z,35.95
2022-11-26T00:22:32.285Z,33.23
2022-11-26T00:25:00.105Z,31.93
2022-11-26T00:27:28.400Z,29.02
2022-11-26T00:29:56.533Z,28.65
2022-11-26T00:32:26.238Z,34.53
2022-11-26T00:34:54.162Z,29.02
2022-11-26T00:37:26.109Z,31.52
2022-11-26T00:39:55.177Z,27.13
2022-11-26T00:42:23.431Z,27.20
2022-11-26T00:44:50.951Z,29.35
2022-11-26T00:47:18.779Z,29.72
2022-11-26T00:49:46.542Z,31.93
2022-11-26T00:52:33.617Z,26.65
2022-11-26T00:55:09.707Z,25.45
2022-11-26T00:57:37.245Z,26.73
2022-11-26T01:00:18.672Z,26.45
2022-11-26T01:02:46.676Z,24.00
2022-11-26T01:05:14.946Z,31.07
2022-11-26T01:07:45.776Z,29.02
2022-11-26T01:10:20.993Z,27.70
2022-11-26T01:15:18.477Z,24.25
2022-11-26T01:17:46.904Z,23.22
2022-11-26T01:20:31.055Z,26.55
2022-11-26T01:22:59.284Z,31.35
2022-11-26T01:25:27.351Z,33.08
2022-11-26T01:27:55.273Z,29.65
2022-11-26T01:30:28.381Z,31.85
2022-11-26T01:32:56.671Z,33.88
2022-11-26T01:35:24.501Z,30.35
2022-11-26T01:37:52.426Z,29.55
2022-11-26T01:40:37.818Z,31.97
2022-11-26T01:43:26.409Z,33.78
2022-11-26T01:45:56.332Z,25.52
2022-11-26T01:48:33.117Z,29.82
2022-11-26T01:51:07.745Z,31.45
2022-11-26T01:53:49.624Z,30.13
2022-11-26T01:56:28.985Z,29.48
2022-11-26T01:59:20.601Z,32.90
2022-11-26T02:01:52.658Z,25.37
2022-11-26T02:04:27.521Z,27.85
2022-11-26T02:06:56.489Z,25.17
2022-11-26T02:09:26.500Z,27.30
2022-11-26T02:11:54.624Z,26.62
2022-11-26T02:14:30.670Z,28.25
2022-11-26T02:17:19.137Z,27.22
2022-11-26T02:20:07.989Z,24.10
2022-11-26T02:23:07.279Z,26.23
2022-11-26T02:26:04.401Z,27.95
2022-11-26T02:29:07.851Z,24.75
2022-11-26T02:31:59.691Z,24.55
2022-11-26T02:34:47.581Z,25.27
2022-11-26T02:37:23.144Z,23.42
2022-11-26T02:39:51.539Z,24.40
2022-11-26T02:42:27.032Z,26.05
2022-11-26T02:45:05.201Z,23.40
2022-11-26T02:47:34.639Z,19.23
2022-11-26T02:50:07.745Z,22.70
2022-11-26T02:52:39.824Z,23.57
2022-11-26T02:55:10.588Z,23.05
2022-11-26T02:57:48.301Z,25.75
2022-11-26T03:00:17.988Z,41.23
2022-11-26T03:02:59.843Z,39.42
2022-11-26T03:05:31.600Z,38.08
2022-11-26T03:08:01.174Z,34.43
2022-11-26T03:10:30.579Z,27.50
2022-11-26T03:12:58.654Z,35.63
2022-11-26T03:15:26.981Z,25.35
2022-11-26T03:17:54.644Z,23.38
2022-11-26T03:20:22.449Z,21.07
2022-11-26T03:22:50.271Z,22.52
2022-11-26T03:25:18.044Z,24.65
2022-11-26T03:27:45.795Z,23.55
2022-11-26T03:30:13.793Z,23.45
2022-11-26T03:32:41.541Z,23.75
2022-11-26T03:35:09.604Z,23.62
2022-11-26T03:37:37.357Z,27.05
2022-11-26T03:40:07.339Z,26.35
2022-11-26T03:42:35.756Z,32.88
2022-11-26T03:45:04.353Z,27.85
2022-11-26T03:47:31.871Z,28.47
2022-11-26T03:49:59.697Z,28.02
2022-11-26T03:52:27.379Z,29.20
2022-11-26T03:54:55.367Z,30.80
2022-11-26T03:57:23.222Z,31.73
2022-11-26T03:59:50.766Z,32.17
2022-11-26T04:02:18.467Z,31.82
2022-11-26T04:04:46.279Z,29.32
2022-11-26T04:07:14.117Z,37.73
2022-11-26T04:09:41.847Z,35.73
2022-11-26T04:12:09.517Z,32.85
2022-11-26T04:14:37.549Z,31.12
2022-11-26T04:17:05.425Z,34.23
2022-11-26T04:19:33.359Z,35.08
2022-11-26T04:22:01.082Z,33.55
2022-11-26T04:24:28.976Z,38.98
2022-11-26T04:26:56.572Z,38.28
2022-11-26T04:29:24.488Z,45.40
2022-11-26T04:31:52.053Z,35.98
2022-11-26T04:34:19.743Z,35.80
2022-11-26T04:36:47.297Z,40.38
2022-11-26T04:39:15.164Z,39.58
2022-11-26T04:41:42.750Z,38.98
2022-11-26T04:44:10.527Z,42.15
2022-11-26T04:46:38.220Z,36.83
2022-11-26T04:49:05.750Z,38.05
2022-11-26T04:51:33.379Z,37.13
2022-11-26T04:54:03.349Z,36.90
2022-11-26T04:56:30.422Z,52.05
2022-11-26T04:58:58.191Z,110.72
2022-11-26T05:01:26.670Z,54.95
2022-11-26T05:03:54.500Z,70.72
2022-11-26T05:06:22.159Z,72.75
2022-11-26T05:08:49.927Z,44.30
2022-11-26T05:11:17.922Z,54.53
2022-11-26T05:13:45.277Z,57.60
2022-11-26T05:16:12.675Z,47.48
2022-11-26T05:18:40.447Z,48.28
2022-11-26T05:21:08.109Z,48.40
2022-11-26T05:23:35.809Z,45.73
2022-11-26T05:26:03.629Z,43.45
2022-11-26T05:28:31.543Z,42.05
2022-11-26T05:31:02.564Z,47.95
2022-11-26T05:33:30.614Z,42.13
2022-11-26T05:35:58.212Z,39.42
2022-11-26T05:38:25.989Z,39.35
2022-11-26T05:40:53.458Z,40.10
2022-11-26T05:43:21.037Z,41.80
2022-11-26T05:45:48.796Z,40.95
2022-11-26T05:48:16.706Z,36.68
2022-11-26T05:50:44.506Z,42.03
2022-11-26T05:53:12.567Z,38.17
2022-11-26T05:55:40.564Z,38.42
2022-11-26T05:58:09.268Z,40.78
2022-11-26T06:00:36.931Z,41.53
2022-11-26T06:03:04.990Z,44.98
2022-11-26T06:05:32.786Z,49.77
2022-11-26T06:08:00.553Z,44.90
2022-11-26T06:10:28.372Z,45.28
2022-11-26T06:12:56.296Z,52.60
2022-11-26T06:15:24.249Z,45.67
2022-11-26T06:17:51.876Z,38.13
2022-11-26T06:20:19.652Z,39.63
2022-11-26T06:22:47.478Z,40.98
2022-11-26T06:25:15.285Z,39.15
2022-11-26T06:27:43.688Z,43.58
2022-11-26T06:30:12.527Z,44.42
2022-11-26T06:32:40.165Z,44.48
2022-11-26T06:35:08.986Z,43.02
2022-11-26T06:37:36.824Z,44.00
2022-11-26T06:40:05.695Z,39.67
2022-11-26T06:42:33.319Z,49.77
2022-11-26T06:45:00.966Z,46.92
2022-11-26T06:47:28.630Z,41.98
2022-11-26T06:49:56.515Z,41.37
2022-11-26T06:52:26.155Z,38.98
2022-11-26T06:54:55.436Z,41.63
2022-11-26T06:57:23.094Z,41.60
2022-11-26T06:59:51.811Z,41.63
2022-11-26T07:02:19.905Z,47.45
2022-11-26T07:04:47.893Z,71.35
2022-11-26T07:07:15.840Z,111.85
2022-11-26T07:09:43.947Z,116.95
2022-11-26T07:12:12.100Z,83.03
2022-11-26T07:14:40.397Z,77.80
2022-11-26T07:17:08.481Z,116.25
2022-11-26T07:19:36.536Z,81.22
2022-11-26T07:22:04.299Z,69.37
2022-11-26T07:24:32.261Z,56.20
2022-11-26T07:26:59.970Z,59.42
2022-11-26T07:29:27.985Z,50.67
2022-11-26T07:31:56.091Z,54.08
2022-11-26T07:34:23.899Z,43.52
2022-11-26T07:36:56.773Z,44.95
2022-11-26T07:39:21.493Z,40.63
2022-11-26T07:41:49.212Z,36.58
2022-11-26T07:44:16.877Z,39.53
2022-11-26T07:46:44.568Z,43.05
2022-11-26T07:49:12.214Z,42.55
2022-11-26T07:51:40.299Z,43.87
2022-11-26T07:54:09.386Z,40.70
2022-11-26T07:56:37.100Z,39.45
2022-11-26T07:59:04.866Z,42.95
2022-11-26T08:01:33.307Z,51.28
2022-11-26T08:04:05.395Z,50.65
2022-11-26T08:06:34.064Z,45.98
2022-11-26T08:09:03.294Z,40.17
2022-11-26T08:11:33.377Z,41.80
2022-11-26T08:14:08.953Z,38.83
2022-11-26T08:16:37.225Z,38.40
2022-11-26T08:19:11.324Z,37.53
2022-11-26T08:21:41.395Z,36.13
2022-11-26T08:24:14.021Z,36.77
2022-11-26T08:26:44.481Z,33.25
2022-11-26T08:29:14.615Z,38.48
2022-11-26T08:31:46.345Z,34.20
2022-11-26T08:34:15.713Z,33.85
2022-11-26T08:36:45.093Z,32.40
2022-11-26T08:39:16.694Z,33.33
2022-11-26T08:41:51.680Z,33.23
2022-11-26T08:44:15.104Z,45.05
2022-11-26T08:46:42.958Z,34.20
2022-11-26T08:49:13.035Z,34.30
2022-11-26T08:51:41.483Z,37.08
2022-11-26T08:54:09.878Z,35.85
2022-11-26T08:56:37.858Z,38.98
2022-11-26T08:59:06.134Z,42.80
2022-11-26T09:01:35.023Z,76.15
2022-11-26T09:04:04.745Z,50.55
2022-11-26T09:06:36.467Z,34.98
2022-11-26T09:09:15.068Z,29.15
2022-11-26T09:11:56.896Z,28.70
2022-11-26T09:14:31.111Z,55.98
2022-11-26T09:16:58.924Z,40.73
2022-11-26T09:19:28.170Z,45.83
2022-11-26T09:21:56.198Z,39.45
2022-11-26T09:24:24.275Z,37.48
2022-11-26T09:26:52.674Z,38.95
2022-11-26T09:29:22.777Z,53.02
2022-11-26T09:34:20.458Z,44.65
2022-11-26T09:36:48.006Z,39.08
2022-11-26T09:39:17.058Z,43.90
2022-11-26T09:42:02.279Z,41.85
2022-11-26T09:45:12.033Z,31.48
2022-11-26T09:47:45.140Z,27.80
2022-11-26T09:50:27.508Z,33.80
2022-11-26T09:53:22.014Z,32.78
2022-11-26T09:55:53.424Z,40.23
2022-11-26T09:58:40.750Z,32.75
2022-11-26T10:01:13.930Z,31.57
2022-11-26T10:03:41.887Z,32.23
2022-11-26T10:06:48.402Z,34.75
2022-11-26T10:09:37.758Z,44.55
2022-11-26T10:12:50.524Z,39.88
2022-11-26T10:15:15.522Z,49.90
2022-11-26T10:18:06.407Z,30.95
2022-11-26T10:21:26.843Z,30.17
2022-11-26T10:24:04.744Z,33.90
2022-11-26T10:26:37.690Z,37.50
2022-11-26T10:29:28.606Z,33.95
2022-11-26T10:32:02.501Z,39.13
2022-11-26T10:34:41.668Z,39.40
2022-11-26T10:37:10.490Z,31.93
2022-11-26T10:39:38.200Z,34.83
2022-11-26T10:42:19.425Z,39.48
2022-11-26T10:44:49.694Z,34.40
2022-11-26T10:47:30.715Z,38.88
2022-11-26T10:50:25.191Z,33.38
2022-11-26T10:52:38.729Z,35.17
2022-11-26T10:55:11.933Z,47.80
2022-11-26T10:57:49.813Z,42.05
2022-11-26T11:00:40.270Z,36.20
2022-11-26T11:04:06.685Z,36.93
2022-11-26T11:06:28.480Z,37.17
2022-11-26T11:08:56.125Z,39.10
2022-11-26T11:11:28.115Z,36.98
2022-11-26T11:13:57.369Z,40.45
2022-11-26T11:16:33.251Z,42.08
2022-11-26T11:19:05.357Z,37.83
2022-11-26T11:21:37.999Z,35.60
2022-11-26T11:24:25.207Z,32.42
2022-11-26T11:27:01.319Z,37.85
2022-11-26T11:33:12.354Z,40.88
2022-11-26T11:33:14.358Z,44.93
2022-11-26T11:39:40.282Z,49.90
2022-11-26T11:42:27.491Z,52.38
2022-11-26T11:44:58.029Z,65.00
2022-11-26T11:47:43.702Z,47.08
2022-11-26T11:50:43.120Z,47.10
2022-11-26T11:53:40.599Z,88.10
2022-11-26T11:56:32.295Z,88.82
2022-11-26T11:59:20.578Z,61.10
2022-11-26T12:02:21.448Z,53.73
2022-11-26T12:05:02.580Z,47.33
2022-11-26T12:08:08.787Z,49.27
2022-11-26T12:11:10.705Z,51.63
2022-11-26T12:13:46.538Z,46.45
2022-11-26T12:16:17.037Z,41.33
2022-11-26T12:18:50.132Z,50.33
2022-11-26T12:21:23.274Z,42.20
2022-11-26T12:24:17.682Z,45.15
2022-11-26T12:26:56.993Z,43.35
2022-11-26T12:29:42.011Z,38.13
2022-11-26T12:32:40.163Z,39.63
2022-11-26T12:35:34.028Z,37.42
2022-11-26T12:38:12.975Z,36.13
2022-11-26T12:41:03.365Z,28.65
2022-11-26T12:44:00.759Z,36.33
2022-11-26T12:47:00.862Z,35.10
2022-11-26T12:50:03.922Z,34.80
2022-11-26T12:53:06.176Z,45.03
2022-11-26T12:56:00.926Z,33.40
2022-11-26T12:58:49.175Z,30.02
2022-11-26T13:01:17.366Z,36.50
2022-11-26T13:03:45.470Z,32.00
2022-11-26T13:06:24.595Z,29.63
2022-11-26T13:09:31.045Z,32.75
2022-11-26T13:12:38.605Z,37.83
2022-11-26T13:15:27.149Z,35.25
2022-11-26T13:17:57.019Z,30.10
2022-11-26T13:20:48.487Z,34.00
2022-11-26T13:23:46.113Z,34.75
2022-11-26T13:26:48.685Z,51.35
2022-11-26T13:29:36.579Z,36.10
2022-11-26T13:32:26.375Z,36.13
2022-11-26T13:35:36.253Z,46.18
2022-11-26T13:38:28.104Z,38.48
2022-11-26T13:41:34.686Z,38.70
2022-11-26T13:47:25.123Z,53.23
2022-11-26T13:50:16.304Z,36.90
2022-11-26T13:52:58.508Z,33.10
2022-11-26T13:55:34.332Z,40.65
2022-11-26T13:58:10.718Z,35.70
2022-11-26T14:00:39.102Z,31.97
2022-11-26T14:03:08.942Z,43.63
2022-11-26T14:06:01.300Z,43.30
2022-11-26T14:08:42.776Z,49.20
2022-11-26T14:11:14.427Z,81.75
2022-11-26T14:13:42.828Z,40.78
2022-11-26T14:16:10.917Z,33.02
2022-11-26T14:18:56.277Z,32.58
2022-11-26T14:21:27.065Z,33.48
2022-11-26T14:24:04.820Z,39.73
2022-11-26T14:26:39.360Z,39.40
2022-11-26T14:29:13.125Z,37.48
2022-11-26T14:31:54.012Z,43.75
2022-11-26T14:34:33.349Z,42.03
2022-11-26T14:37:02.369Z,43.60
2022-11-26T14:39:31.436Z,37.67
2022-11-26T14:42:05.568Z,41.65
2022-11-26T14:44:29.844Z,48.25
2022-11-26T14:47:05.443Z,42.65
2022-11-26T14:49:44.366Z,46.30
2022-11-26T14:52:20.221Z,45.15
2022-11-26T14:54:54.835Z,48.80
2022-11-26T14:57:30.928Z,67.10
2022-11-26T15:00:03.871Z,52.60
2022-11-26T15:02:35.187Z,56.83
2022-11-26T15:05:14.155Z,53.60
2022-11-26T15:07:42.246Z,58.48
2022-11-26T15:10:20.525Z,57.90
2022-11-26T15:12:52.092Z,57.50
2022-11-26T15:15:23.222Z,62.48
2022-11-26T15:17:58.625Z,68.00
2022-11-26T15:20:28.094Z,62.83
2022-11-26T15:22:59.846Z,71.40
2022-11-26T15:25:32.310Z,70.17
2022-11-26T15:28:21.999Z,77.53
2022-11-26T15:31:02.615Z,64.03
2022-11-26T15:33:35.922Z,56.85
2022-11-26T15:36:06.413Z,62.98
2022-11-26T15:38:37.464Z,60.70
2022-11-26T15:41:16.252Z,55.73
2022-11-26T15:43:55.480Z,63.13
2022-11-26T15:46:30.791Z,63.73
2022-11-26T15:51:59.795Z,86.53
2022-11-26T15:54:49.737Z,71.12
2022-11-26T15:57:08.188Z,63.52
2022-11-26T15:59:46.706Z,52.88
2022-11-26T16:02:23.503Z,66.53
2022-11-26T16:04:57.476Z,60.75
2022-11-26T16:07:29.003Z,56.73
2022-11-26T16:10:22.975Z,46.83
2022-11-26T16:13:19.177Z,61.45
2022-11-26T16:15:57.860Z,51.30
2022-11-26T16:18:39.751Z,60.05
2022-11-26T16:21:15.410Z,54.03
2022-11-26T16:23:43.262Z,51.85
2022-11-26T16:26:19.650Z,59.27
2022-11-26T16:28:48.001Z,64.25
2022-11-26T16:31:18.146Z,74.42
2022-11-26T16:33:46.311Z,63.40
2022-11-26T16:36:28.173Z,58.15
2022-11-26T16:38:56.661Z,74.58
2022-11-26T16:41:24.647Z,82.35
2022-11-26T16:43:52.922Z,81.60
2022-11-26T16:46:23.903Z,90.90
2022-11-26T16:48:52.198Z,93.70
2022-11-26T16:51:21.185Z,99.67
2022-11-26T16:53:49.247Z,90.32
2022-11-26T16:56:35.285Z,90.65
2022-11-26T16:59:06.551Z,84.67
2022-11-26T17:01:35.521Z,75.45
2022-11-26T17:04:02.984Z,76.02
2022-11-26T17:06:33.599Z,82.90
2022-11-26T17:09:03.291Z,121.02
2022-11-26T17:11:30.945Z,109.55
2022-11-26T17:13:58.343Z,95.30
2022-11-26T17:16:25.971Z,97.80
2022-11-26T17:18:53.985Z,98.10
2022-11-26T17:21:22.442Z,90.28
2022-11-26T17:23:50.970Z,87.70
2022-11-26T17:26:23.876Z,78.87
2022-11-26T17:28:51.960Z,69.00
2022-11-26T17:31:19.898Z,94.00
2022-11-26T17:33:50.174Z,90.17
2022-11-26T17:36:20.913Z,81.02
2022-11-26T17:38:51.095Z,86.22
2022-11-26T17:41:19.311Z,80.28
2022-11-26T17:43:46.939Z,80.40
2022-11-26T17:46:19.536Z,72.90
2022-11-26T17:48:49.071Z,84.60
2022-11-26T17:51:17.629Z,73.12
2022-11-26T17:53:45.522Z,76.87
2022-11-26T17:56:20.466Z,72.60
2022-11-26T17:58:48.558Z,70.72
2022-11-26T18:01:17.189Z,69.07
2022-11-26T18:03:45.716Z,67.42
2022-11-26T18:06:17.086Z,67.62
2022-11-26T18:08:45.857Z,61.95
2022-11-26T18:11:15.850Z,71.60
2022-11-26T18:13:44.828Z,85.10
2022-11-26T18:16:12.282Z,85.62
2022-11-26T18:18:40.142Z,70.00
2022-11-26T18:21:08.586Z,61.15
2022-11-26T18:23:36.101Z,62.00
2022-11-26T18:26:04.147Z,67.70
2022-11-26T18:28:32.113Z,68.17
2022-11-26T18:30:59.573Z,67.53
2022-11-26T18:33:27.598Z,166.73
2022-11-26T18:35:55.043Z,126.70
2022-11-26T18:38:24.784Z,108.52
2022-11-26T18:41:01.599Z,120.10
2022-11-26T18:43:31.662Z,103.00
2022-11-26T18:46:04.301Z,130.50
2022-11-26T18:48:36.125Z,107.65
2022-11-26T18:51:05.302Z,80.00
2022-11-26T18:53:33.697Z,69.60
2022-11-26T18:56:01.808Z,66.20
2022-11-26T18:58:30.171Z,63.80
2022-11-26T19:00:58.178Z,76.70
2022-11-26T19:03:27.503Z,69.10
2022-11-26T19:05:55.522Z,74.35
2022-11-26T19:08:23.753Z,110.22
2022-11-26T19:10:51.417Z,133.90
2022-11-26T19:13:19.707Z,166.53
2022-11-26T19:15:50.268Z,125.35
2022-11-26T19:18:18.145Z,83.52
2022-11-26T19:20:50.815Z,89.55
2022-11-26T19:23:21.092Z,80.67
2022-11-26T19:25:49.504Z,80.20
2022-11-26T19:28:17.613Z,77.92
2022-11-26T19:30:45.314Z,78.15
2022-11-26T19:33:12.997Z,73.30
2022-11-26T19:35:41.148Z,78.15
2022-11-26T19:38:08.742Z,85.28
2022-11-26T19:40:39.009Z,80.10
2022-11-26T19:43:06.667Z,93.95
2022-11-26T19:45:34.273Z,74.37
2022-11-26T19:48:02.196Z,72.40
2022-11-26T19:50:29.711Z,67.35
2022-11-26T19:52:57.132Z,64.20
2022-11-26T19:55:24.750Z,69.80
2022-11-26T19:57:52.398Z,73.85
2022-11-26T20:00:20.942Z,79.30
2022-11-26T20:02:48.556Z,71.02
2022-11-26T20:05:16.512Z,65.28
2022-11-26T20:07:44.793Z,64.12
2022-11-26T20:10:14.450Z,67.72
2022-11-26T20:12:42.276Z,72.95
2022-11-26T20:15:10.969Z,70.90
2022-11-26T20:17:38.714Z,69.60
2022-11-26T20:20:07.767Z,68.28
2022-11-26T20:22:36.958Z,71.82
2022-11-26T20:25:05.941Z,73.47
2022-11-26T20:27:37.212Z,67.45
2022-11-26T20:30:15.013Z,74.72
2022-11-26T20:32:46.937Z,77.82
2022-11-26T20:35:21.831Z,84.03
2022-11-26T20:37:50.679Z,74.17
2022-11-26T20:40:18.718Z,71.22
2022-11-26T20:42:46.491Z,65.97
2022-11-26T20:45:14.860Z,56.95
2022-11-26T20:47:42.479Z,64.67
2022-11-26T20:50:10.869Z,71.40
2022-11-26T20:52:38.792Z,67.00
2022-11-26T20:55:08.628Z,68.55
2022-11-26T20:57:39.978Z,62.50
2022-11-26T21:00:08.915Z,58.90
2022-11-26T21:02:38.147Z,61.45
2022-11-26T21:05:07.250Z,61.35
2022-11-26T21:07:35.326Z,78.80
2022-11-26T21:10:04.179Z,74.53
2022-11-26T21:12:32.140Z,74.87
2022-11-26T21:15:00.015Z,73.22
2022-11-26T21:17:30.912Z,72.97
2022-11-26T21:19:59.858Z,67.08
2022-11-26T21:22:27.833Z,64.00
2022-11-26T21:24:55.588Z,59.83
2022-11-26T21:27:23.480Z,58.60
2022-11-26T21:29:50.952Z,58.55
2022-11-26T21:32:18.729Z,55.40
2022-11-26T21:34:46.743Z,56.10
2022-11-26T21:37:14.425Z,62.27
2022-11-26T21:39:42.479Z,68.90
2022-11-26T21:42:10.357Z,65.08
2022-11-26T21:44:38.179Z,70.78
2022-11-26T21:47:06.138Z,74.85
2022-11-26T21:49:34.186Z,71.30
2022-11-26T21:52:01.915Z,72.20
2022-11-26T21:54:29.709Z,84.15
2022-11-26T21:56:57.834Z,84.55
2022-11-26T21:59:25.851Z,91.20
2022-11-26T22:01:54.037Z,86.22
2022-11-26T22:04:21.782Z,90.97
2022-11-26T22:06:49.628Z,85.92
2022-11-26T22:09:17.675Z,71.60
2022-11-26T22:11:46.120Z,73.15
2022-11-26T22:14:15.613Z,74.97
2022-11-26T22:16:44.058Z,72.55
2022-11-26T22:19:11.752Z,86.35
2022-11-26T22:21:42.128Z,88.03
2022-11-26T22:24:19.624Z,78.70
2022-11-26T22:26:47.904Z,73.20
2022-11-26T22:29:17.832Z,70.97
2022-11-26T22:31:47.687Z,74.75
2022-11-26T22:34:18.210Z,75.80
2022-11-26T22:36:47.240Z,70.62
2022-11-26T22:39:17.956Z,69.92
2022-11-26T22:41:47.779Z,68.22
2022-11-26T22:44:16.833Z,74.62
2022-11-26T22:46:45.382Z,76.00
2022-11-26T22:49:17.366Z,75.35
2022-11-26T22:51:46.929Z,78.70
2022-11-26T22:54:17.690Z,84.00
2022-11-26T22:56:45.496Z,79.45
2022-11-26T22:59:16.515Z,86.30
2022-11-26T23:01:44.663Z,77.08
2022-11-26T23:04:12.803Z,79.32
2022-11-26T23:06:40.841Z,75.22
2022-11-26T23:09:09.445Z,79.75
2022-11-26T23:11:40.205Z,76.15
2022-11-26T23:14:10.858Z,75.70
2022-11-26T23:16:41.509Z,95.12
2022-11-26T23:19:11.848Z,100.50
2022-11-26T23:21:41.192Z,91.32
2022-11-26T23:24:09.762Z,88.12
2022-11-26T23:26:39.266Z,82.00
2022-11-26T23:29:08.433Z,77.97
2022-11-26T23:31:40.605Z,69.25
2022-11-26T23:34:09.573Z,74.00
2022-11-26T23:36:38.352Z,75.20
2022-11-26T23:39:10.123Z,69.97
2022-11-26T23:41:38.154Z,72.80
2022-11-26T23:44:05.906Z,67.80
2022-11-26T23:46:37.002Z,64.07
2022-11-26T23:49:04.896Z,63.87
2022-11-26T23:51:34.076Z,62.60
2022-11-26T23:54:01.885Z,66.12
2022-11-26T23:56:33.117Z,66.00
2022-11-26T23:59:04.252Z,68.87
